createdAt,value
2022-12-15T00:02:38.089Z,1.26
2022-12-15T00:05:25.925Z,0.64
2022-12-15T00:08:13.425Z,1.21
2022-12-15T00:11:00.701Z,0.75
2022-12-15T00:13:48.228Z,0.68
2022-12-15T00:16:36.594Z,0.90
2022-12-15T00:19:24.605Z,1.39
2022-12-15T00:22:11.012Z,-0.02
2022-12-15T00:24:58.440Z,0.32
2022-12-15T00:27:45.373Z,1.22
2022-12-15T00:30:32.989Z,1.00
2022-12-15T00:33:27.289Z,1.23
2022-12-15T00:36:19.076Z,0.66
2022-12-15T00:38:49.227Z,0.83
2022-12-15T00:41:20.125Z,1.11
2022-12-15T00:43:50.075Z,-0.08
2022-12-15T00:46:37.146Z,0.48
2022-12-15T00:49:30.160Z,0.51
2022-12-15T00:52:17.230Z,0.86
2022-12-15T00:55:04.292Z,0.80
2022-12-15T00:57:51.601Z,0.68
2022-12-15T01:00:39.053Z,0.55
2022-12-15T01:03:30.945Z,0.13
2022-12-15T01:06:19.953Z,0.79
2022-12-15T01:09:07.449Z,1.34
2022-12-15T01:11:54.376Z,0.52
2022-12-15T01:14:41.509Z,0.73
2022-12-15T01:17:28.400Z,1.53
2022-12-15T01:20:15.140Z,0.61
2022-12-15T01:22:46.771Z,-0.17
2022-12-15T01:25:17.654Z,0.74
2022-12-15T01:27:47.623Z,1.40
2022-12-15T01:30:23.520Z,1.21
2022-12-15T01:32:53.494Z,1.20
2022-12-15T01:35:23.851Z,1.30
2022-12-15T01:37:55.371Z,1.03
2022-12-15T01:40:42.405Z,1.59
2022-12-15T01:43:15.259Z,1.63
2022-12-15T01:46:03.807Z,1.44
2022-12-15T01:48:45.414Z,1.43
2022-12-15T01:51:27.400Z,1.31
2022-12-15T01:54:03.785Z,1.29
2022-12-15T01:56:37.901Z,1.43
2022-12-15T01:59:10.718Z,0.84
2022-12-15T02:01:40.954Z,0.95
2022-12-15T02:04:11.053Z,1.10
2022-12-15T02:06:41.167Z,1.22
2022-12-15T02:09:13.318Z,1.26
2022-12-15T02:11:52.717Z,1.41
2022-12-15T02:14:31.228Z,1.75
2022-12-15T02:17:09.557Z,1.42
2022-12-15T02:20:15.660Z,0.52
2022-12-15T02:23:09.525Z,0.96
2022-12-15T02:26:02.000Z,1.34
2022-12-15T02:28:41.178Z,1.29
2022-12-15T02:31:33.030Z,0.15
2022-12-15T02:34:07.023Z,0.59
2022-12-15T02:36:39.404Z,0.87
2022-12-15T02:39:09.279Z,1.32
2022-12-15T02:41:40.147Z,0.97
2022-12-15T02:44:14.323Z,0.22
2022-12-15T02:46:57.035Z,1.11
2022-12-15T02:49:35.699Z,1.33
2022-12-15T02:52:15.561Z,1.79
2022-12-15T02:55:00.518Z,1.94
2022-12-15T02:57:38.080Z,1.81
2022-12-15T03:00:11.417Z,1.79
2022-12-15T03:02:46.492Z,1.12
2022-12-15T03:05:16.814Z,1.15
2022-12-15T03:07:49.812Z,1.00
2022-12-15T03:10:20.493Z,1.60
2022-12-15T03:12:50.450Z,1.06
2022-12-15T03:15:19.839Z,1.69
2022-12-15T03:17:54.095Z,1.70
2022-12-15T03:20:24.481Z,1.65
2022-12-15T03:22:55.059Z,1.53
2022-12-15T03:25:25.305Z,1.57
2022-12-15T03:27:54.580Z,0.93
2022-12-15T03:30:24.398Z,1.25
2022-12-15T03:32:56.439Z,1.69
2022-12-15T03:35:25.983Z,1.32
2022-12-15T03:37:56.458Z,1.43
2022-12-15T03:40:26.044Z,1.61
2022-12-15T03:42:55.760Z,0.86
2022-12-15T03:45:27.745Z,1.48
2022-12-15T03:47:59.430Z,1.83
2022-12-15T03:50:30.318Z,1.82
2022-12-15T03:53:03.325Z,1.48
2022-12-15T03:55:33.313Z,1.95
2022-12-15T03:58:03.374Z,1.64
2022-12-15T04:00:33.149Z,1.36
2022-12-15T04:03:04.558Z,1.45
2022-12-15T04:05:36.555Z,1.56
2022-12-15T04:08:06.925Z,1.68
2022-12-15T04:10:37.479Z,1.52
2022-12-15T04:13:09.294Z,1.59
2022-12-15T04:15:40.335Z,1.67
2022-12-15T04:18:13.030Z,1.37
2022-12-15T04:20:43.125Z,1.64
2022-12-15T04:23:12.986Z,1.81
2022-12-15T04:26:00.750Z,1.48
2022-12-15T04:28:47.989Z,0.60
2022-12-15T04:31:38.030Z,1.02
2022-12-15T04:34:29.989Z,1.11
2022-12-15T04:37:17.942Z,0.93
2022-12-15T04:40:08.298Z,1.24
2022-12-15T04:42:57.859Z,1.84
2022-12-15T04:45:45.258Z,1.87
2022-12-15T04:48:33.403Z,1.44
2022-12-15T04:51:23.814Z,1.79
2022-12-15T04:54:11.555Z,1.88
2022-12-15T04:56:58.925Z,2.12
2022-12-15T04:59:46.038Z,1.79
2022-12-15T05:02:33.482Z,0.73
2022-12-15T05:05:20.780Z,0.82
2022-12-15T05:08:09.164Z,1.28
2022-12-15T05:10:55.759Z,1.38
2022-12-15T05:13:42.618Z,0.87
2022-12-15T05:16:29.629Z,0.99
2022-12-15T05:19:16.919Z,0.92
2022-12-15T05:22:04.304Z,1.02
2022-12-15T05:24:53.022Z,0.99
2022-12-15T05:27:40.978Z,1.41
2022-12-15T05:30:28.858Z,1.25
2022-12-15T05:32:58.625Z,0.88
2022-12-15T05:35:30.990Z,0.77
2022-12-15T05:38:01.142Z,0.79
2022-12-15T05:40:37.070Z,-0.59
2022-12-15T05:43:07.093Z,0.18
2022-12-15T05:45:37.287Z,0.84
2022-12-15T05:48:07.607Z,0.43
2022-12-15T05:50:41.904Z,0.70
2022-12-15T05:53:11.665Z,0.72
2022-12-15T05:55:47.057Z,0.86
2022-12-15T05:58:17.522Z,0.67
2022-12-15T06:00:47.592Z,0.64
2022-12-15T06:03:17.514Z,0.73
2022-12-15T06:05:51.715Z,0.67
2022-12-15T06:08:25.320Z,0.80
2022-12-15T06:10:57.824Z,0.97
2022-12-15T06:13:32.652Z,0.55
2022-12-15T06:16:05.668Z,0.54
2022-12-15T06:18:38.669Z,0.36
2022-12-15T06:21:13.290Z,0.40
2022-12-15T06:23:43.484Z,0.47
2022-12-15T06:26:17.069Z,0.50
2022-12-15T06:28:47.230Z,0.64
2022-12-15T06:31:18.272Z,0.53
2022-12-15T06:33:48.367Z,0.64
2022-12-15T06:36:19.532Z,0.17
2022-12-15T06:38:50.198Z,-0.15
2022-12-15T06:41:23.587Z,0.16
2022-12-15T06:43:57.077Z,0.34
2022-12-15T06:46:28.889Z,0.45
2022-12-15T06:48:58.899Z,-0.19
2022-12-15T06:51:30.184Z,0.38
2022-12-15T06:54:00.671Z,0.53
2022-12-15T06:56:34.909Z,0.35
2022-12-15T06:59:06.115Z,0.23
2022-12-15T07:01:36.528Z,0.80
2022-12-15T07:04:06.926Z,0.65
2022-12-15T07:06:38.571Z,0.52
2022-12-15T07:09:11.035Z,0.79
2022-12-15T07:11:44.196Z,0.49
2022-12-15T07:14:14.597Z,0.32
2022-12-15T07:16:45.725Z,0.34
2022-12-15T07:19:15.959Z,0.30
2022-12-15T07:21:47.059Z,0.32
2022-12-15T07:24:17.856Z,-0.19
2022-12-15T07:26:49.173Z,0.34
2022-12-15T07:29:23.287Z,0.23
2022-12-15T07:31:53.682Z,-0.55
2022-12-15T07:34:24.135Z,-0.06
2022-12-15T07:36:54.720Z,0.68
2022-12-15T07:39:24.692Z,0.86
2022-12-15T07:41:56.379Z,0.98
2022-12-15T07:44:26.071Z,1.13
2022-12-15T07:46:56.155Z,1.30
2022-12-15T07:49:26.014Z,1.22
2022-12-15T07:51:58.748Z,1.04
2022-12-15T07:54:29.505Z,0.99
2022-12-15T07:57:03.122Z,1.15
2022-12-15T07:59:32.894Z,1.16
2022-12-15T08:02:06.626Z,1.34
2022-12-15T08:04:36.674Z,0.11
2022-12-15T08:07:07.624Z,0.79
2022-12-15T08:09:37.228Z,0.66
2022-12-15T08:12:09.214Z,1.25
2022-12-15T08:14:39.025Z,1.81
2022-12-15T08:17:08.778Z,1.72
2022-12-15T08:19:38.049Z,1.78
2022-12-15T08:22:07.677Z,1.60
2022-12-15T08:24:38.096Z,1.67
2022-12-15T08:27:09.810Z,1.95
2022-12-15T08:29:55.330Z,1.79
2022-12-15T08:32:25.374Z,2.01
2022-12-15T08:34:55.564Z,1.46
2022-12-15T08:37:25.145Z,1.43
2022-12-15T08:39:55.320Z,1.38
2022-12-15T08:42:26.557Z,0.83
2022-12-15T08:44:56.526Z,1.50
2022-12-15T08:47:26.170Z,1.80
2022-12-15T08:49:55.949Z,1.51
2022-12-15T08:52:25.777Z,1.96
2022-12-15T08:54:56.205Z,2.25
2022-12-15T08:57:27.811Z,2.17
2022-12-15T08:59:58.015Z,2.53
2022-12-15T09:02:28.189Z,2.44
2022-12-15T09:04:58.346Z,2.18
2022-12-15T09:07:30.271Z,2.43
2022-12-15T09:09:59.993Z,2.19
2022-12-15T09:12:31.588Z,2.12
2022-12-15T09:15:01.245Z,2.31
2022-12-15T09:17:31.648Z,2.35
2022-12-15T09:20:01.394Z,2.47
2022-12-15T09:22:32.931Z,2.36
2022-12-15T09:25:02.942Z,1.96
2022-12-15T09:27:35.157Z,1.92
2022-12-15T09:30:05.447Z,1.29
2022-12-15T09:32:35.485Z,1.45
2022-12-15T09:35:05.827Z,2.20
2022-12-15T09:37:36.102Z,2.14
2022-12-15T09:40:07.141Z,2.11
2022-12-15T09:42:38.806Z,1.77
2022-12-15T09:45:15.840Z,2.19
2022-12-15T09:47:49.626Z,2.21
2022-12-15T09:50:24.947Z,2.25
2022-12-15T09:52:58.601Z,2.22
2022-12-15T09:55:30.811Z,2.28
2022-12-15T09:58:10.684Z,2.31
2022-12-15T10:00:44.737Z,2.61
2022-12-15T10:03:44.602Z,2.47
2022-12-15T10:06:21.529Z,2.33
2022-12-15T10:08:57.570Z,2.55
2022-12-15T10:11:50.206Z,2.69
2022-12-15T10:14:31.962Z,2.42
2022-12-15T10:17:08.920Z,2.63
2022-12-15T10:19:42.351Z,2.19
2022-12-15T10:22:18.396Z,2.38
2022-12-15T10:27:56.137Z,2.13
2022-12-15T10:30:27.759Z,2.46
2022-12-15T10:33:04.221Z,2.43
2022-12-15T10:35:36.108Z,1.68
2022-12-15T10:38:09.196Z,1.82
2022-12-15T10:40:50.265Z,2.43
2022-12-15T10:43:34.923Z,2.68
2022-12-15T10:46:15.973Z,2.56
2022-12-15T10:48:50.335Z,2.05
2022-12-15T10:51:22.814Z,2.63
2022-12-15T10:53:55.810Z,2.23
2022-12-15T10:56:33.188Z,2.09
2022-12-15T10:59:05.609Z,2.60
2022-12-15T11:01:37.478Z,2.94
2022-12-15T11:04:07.723Z,3.11
2022-12-15T11:06:37.717Z,3.20
2022-12-15T11:09:22.520Z,2.42
2022-12-15T11:12:11.992Z,2.92
2022-12-15T11:14:46.282Z,3.13
2022-12-15T11:17:22.040Z,2.87
2022-12-15T11:20:02.198Z,3.19
2022-12-15T11:22:41.805Z,2.93
2022-12-15T11:25:19.747Z,3.05
2022-12-15T11:27:50.876Z,3.07
2022-12-15T11:31:11.181Z,3.10
2022-12-15T11:34:15.550Z,3.09
2022-12-15T11:37:19.712Z,3.59
2022-12-15T11:40:02.561Z,3.32
2022-12-15T11:42:43.291Z,3.53
2022-12-15T11:45:20.575Z,3.83
2022-12-15T11:47:54.576Z,3.93
2022-12-15T11:50:32.621Z,3.79
2022-12-15T11:53:39.257Z,3.78
2022-12-15T11:56:13.155Z,3.99
2022-12-15T11:59:24.962Z,3.88
2022-12-15T12:02:21.198Z,3.99
2022-12-15T12:05:03.275Z,4.19
2022-12-15T12:07:42.400Z,4.04
2022-12-15T12:10:27.055Z,4.19
2022-12-15T12:13:06.931Z,3.40
2022-12-15T12:15:44.241Z,3.58
2022-12-15T12:18:22.029Z,3.17
2022-12-15T12:20:57.001Z,3.22
2022-12-15T12:23:33.175Z,3.19
2022-12-15T12:26:07.811Z,3.46
2022-12-15T12:28:48.849Z,3.28
2022-12-15T12:31:30.812Z,2.80
2022-12-15T12:34:07.326Z,3.10
2022-12-15T12:36:37.676Z,3.51
2022-12-15T12:39:10.926Z,3.26
2022-12-15T12:41:46.980Z,2.99
2022-12-15T12:44:25.800Z,3.24
2022-12-15T12:46:57.050Z,3.16
2022-12-15T12:49:30.514Z,3.37
2022-12-15T12:52:02.917Z,3.63
2022-12-15T12:54:57.729Z,3.45
2022-12-15T12:57:46.646Z,3.07
2022-12-15T13:00:24.986Z,3.08
2022-12-15T13:03:20.874Z,3.26
2022-12-15T13:05:57.350Z,3.96
2022-12-15T13:08:51.817Z,3.25
2022-12-15T13:11:57.419Z,3.27
2022-12-15T13:14:46.636Z,3.43
2022-12-15T13:17:31.710Z,3.61
2022-12-15T13:20:28.970Z,4.07
2022-12-15T13:23:17.750Z,3.34
2022-12-15T13:28:47.756Z,3.61
2022-12-15T13:31:32.271Z,3.24
2022-12-15T13:34:29.668Z,3.54
2022-12-15T13:37:03.706Z,3.26
2022-12-15T13:39:57.399Z,3.43
2022-12-15T13:42:39.105Z,3.32
2022-12-15T13:45:40.069Z,3.57
2022-12-15T13:48:27.486Z,3.84
2022-12-15T13:51:16.391Z,3.98
2022-12-15T13:53:51.477Z,3.33
2022-12-15T13:56:54.616Z,3.49
2022-12-15T13:59:32.586Z,3.32
2022-12-15T14:02:03.752Z,4.18
2022-12-15T14:04:33.861Z,4.08
2022-12-15T14:07:04.555Z,3.97
2022-12-15T14:09:37.022Z,4.00
2022-12-15T14:12:09.213Z,3.88
2022-12-15T14:14:49.085Z,3.80
2022-12-15T14:17:22.560Z,4.19
2022-12-15T14:19:52.905Z,4.07
2022-12-15T14:25:19.968Z,4.22
2022-12-15T14:27:51.237Z,3.97
2022-12-15T14:30:25.897Z,3.78
2022-12-15T14:33:01.329Z,4.34
2022-12-15T14:35:34.708Z,4.18
2022-12-15T14:38:08.351Z,4.25
2022-12-15T14:40:39.100Z,4.32
2022-12-15T14:43:11.943Z,4.14
2022-12-15T14:45:42.344Z,4.25
2022-12-15T14:51:14.585Z,4.55
2022-12-15T14:53:45.983Z,4.36
2022-12-15T14:56:30.024Z,4.17
2022-12-15T14:59:04.506Z,4.36
2022-12-15T15:01:40.442Z,4.49
2022-12-15T15:03:05.904Z,4.25
2022-12-15T15:03:07.443Z,3.45
2022-12-15T15:04:29.413Z,4.55
2022-12-15T15:07:01.192Z,4.60
2022-12-15T15:09:33.410Z,4.65
2022-12-15T15:12:05.970Z,4.65
2022-12-15T15:14:39.751Z,4.65
2022-12-15T15:17:17.430Z,4.47
2022-12-15T15:19:53.201Z,4.18
2022-12-15T15:22:41.192Z,4.15
2022-12-15T15:25:36.140Z,4.32
2022-12-15T15:28:21.514Z,3.86
2022-12-15T15:30:56.579Z,4.14
2022-12-15T15:33:27.976Z,3.72
2022-12-15T15:36:01.325Z,4.08
2022-12-15T15:38:34.883Z,3.64
2022-12-15T15:41:16.886Z,3.37
2022-12-15T15:43:47.392Z,3.47
2022-12-15T15:46:20.211Z,3.89
2022-12-15T15:48:53.065Z,3.85
2022-12-15T15:51:27.093Z,3.83
2022-12-15T15:54:01.443Z,3.45
2022-12-15T15:56:31.487Z,3.86
2022-12-15T15:59:03.286Z,3.70
2022-12-15T16:01:37.389Z,3.55
2022-12-15T16:04:10.689Z,3.67
2022-12-15T16:06:47.267Z,3.30
2022-12-15T16:09:21.225Z,3.35
2022-12-15T16:11:51.889Z,3.31
2022-12-15T16:14:22.795Z,3.60
2022-12-15T16:16:55.008Z,3.36
2022-12-15T16:19:28.126Z,3.55
2022-12-15T16:21:59.926Z,3.20
2022-12-15T16:24:29.811Z,3.00
2022-12-15T16:26:59.746Z,3.05
2022-12-15T16:29:29.535Z,3.32
2022-12-15T16:31:59.405Z,3.22
2022-12-15T16:34:29.047Z,3.39
2022-12-15T16:37:00.343Z,3.43
2022-12-15T16:39:32.803Z,3.36
2022-12-15T16:42:04.582Z,3.40
2022-12-15T16:44:34.411Z,3.38
2022-12-15T16:47:04.660Z,3.32
2022-12-15T16:49:40.546Z,3.40
2022-12-15T16:52:20.326Z,4.00
2022-12-15T16:54:51.186Z,3.96
2022-12-15T16:57:21.822Z,3.83
2022-12-15T16:59:51.927Z,2.69
2022-12-15T17:02:27.623Z,3.15
2022-12-15T17:04:58.232Z,3.33
2022-12-15T17:07:30.717Z,2.87
2022-12-15T17:10:01.667Z,3.47
2022-12-15T17:12:32.090Z,2.99
2022-12-15T17:15:02.641Z,3.03
2022-12-15T17:17:35.937Z,2.85
2022-12-15T17:23:02.195Z,3.31
2022-12-15T17:26:17.229Z,3.76
2022-12-15T17:28:31.670Z,3.55
2022-12-15T17:31:01.935Z,3.89
2022-12-15T17:33:35.510Z,3.95
2022-12-15T17:36:09.881Z,3.64
2022-12-15T17:38:42.826Z,3.86
2022-12-15T17:41:42.439Z,3.97
2022-12-15T17:44:32.414Z,3.99
2022-12-15T17:46:57.655Z,3.51
2022-12-15T17:49:33.071Z,3.99
2022-12-15T17:52:09.270Z,4.10
2022-12-15T17:54:40.300Z,3.22
2022-12-15T17:57:12.548Z,3.32
2022-12-15T17:59:42.951Z,4.10
2022-12-15T18:02:14.974Z,4.02
2022-12-15T18:04:45.507Z,3.76
2022-12-15T18:07:18.808Z,3.62
2022-12-15T18:09:51.076Z,3.69
2022-12-15T18:12:22.925Z,3.88
2022-12-15T18:14:55.550Z,2.99
2022-12-15T18:17:25.461Z,3.68
2022-12-15T18:19:55.361Z,3.49
2022-12-15T18:22:26.975Z,3.81
2022-12-15T18:24:58.451Z,3.62
2022-12-15T18:27:30.060Z,3.49
2022-12-15T18:30:03.661Z,4.01
2022-12-15T18:32:40.505Z,3.73
2022-12-15T18:35:20.413Z,2.79
2022-12-15T18:37:52.111Z,3.38
2022-12-15T18:40:28.140Z,3.58
2022-12-15T18:42:59.156Z,3.55
2022-12-15T18:45:28.862Z,3.69
2022-12-15T18:47:58.601Z,2.95
2022-12-15T18:50:28.976Z,3.79
2022-12-15T18:53:01.261Z,3.79
2022-12-15T18:55:33.377Z,3.46
2022-12-15T18:58:03.088Z,3.60
2022-12-15T19:00:35.103Z,3.96
2022-12-15T19:03:05.120Z,2.79
2022-12-15T19:05:34.870Z,3.34
2022-12-15T19:08:11.360Z,3.76
2022-12-15T19:10:52.804Z,4.08
2022-12-15T19:13:27.211Z,3.81
2022-12-15T19:15:57.358Z,3.95
2022-12-15T19:18:44.838Z,4.04
2022-12-15T19:21:44.150Z,3.68
2022-12-15T19:24:15.837Z,2.99
2022-12-15T19:26:47.350Z,3.83
2022-12-15T19:29:20.614Z,3.78
2022-12-15T19:31:51.781Z,3.65
2022-12-15T19:34:22.145Z,3.16
2022-12-15T19:36:52.616Z,3.41
2022-12-15T19:39:25.215Z,3.93
2022-12-15T19:41:56.137Z,3.59
2022-12-15T19:44:26.911Z,3.43
2022-12-15T19:46:56.360Z,3.63
2022-12-15T19:49:26.564Z,3.65
2022-12-15T19:51:56.735Z,3.77
2022-12-15T19:54:32.926Z,3.16
2022-12-15T19:57:04.110Z,3.78
2022-12-15T19:59:34.101Z,3.81
2022-12-15T20:02:04.140Z,3.86
2022-12-15T20:04:34.504Z,3.72
2022-12-15T20:07:05.855Z,4.07
2022-12-15T20:09:39.206Z,3.64
2022-12-15T20:12:14.035Z,3.94
2022-12-15T20:14:44.212Z,3.51
2022-12-15T20:17:14.127Z,3.82
2022-12-15T20:19:44.628Z,3.36
2022-12-15T20:22:19.759Z,3.78
2022-12-15T20:24:50.007Z,3.33
2022-12-15T20:27:24.392Z,3.78
2022-12-15T20:29:54.485Z,4.19
2022-12-15T20:32:24.972Z,3.47
2022-12-15T20:34:56.089Z,3.90
2022-12-15T20:37:28.932Z,3.82
2022-12-15T20:40:05.065Z,3.81
2022-12-15T20:42:37.711Z,3.71
2022-12-15T20:45:12.548Z,3.60
2022-12-15T20:47:43.700Z,3.75
2022-12-15T20:50:28.982Z,3.51
2022-12-15T20:53:01.852Z,3.97
2022-12-15T20:55:32.347Z,3.60
2022-12-15T20:58:03.953Z,3.31
2022-12-15T21:00:34.480Z,3.60
2022-12-15T21:03:07.955Z,3.87
2022-12-15T21:05:38.835Z,3.83
2022-12-15T21:08:14.731Z,4.02
2022-12-15T21:10:44.675Z,3.74
2022-12-15T21:13:21.702Z,3.93
2022-12-15T21:15:52.306Z,3.74
2022-12-15T21:21:22.560Z,3.98
2022-12-15T21:23:52.130Z,4.18
2022-12-15T21:26:25.152Z,3.72
2022-12-15T21:28:59.611Z,3.41
2022-12-15T21:31:29.465Z,3.70
2022-12-15T21:33:59.231Z,3.61
2022-12-15T21:36:29.989Z,3.96
2022-12-15T21:39:00.013Z,3.65
2022-12-15T21:41:29.775Z,4.09
2022-12-15T21:44:00.870Z,4.00
2022-12-15T21:46:30.736Z,3.90
2022-12-15T21:49:18.572Z,3.17
2022-12-15T21:51:50.874Z,3.86
2022-12-15T21:54:26.147Z,3.30
2022-12-15T21:57:00.444Z,3.98
2022-12-15T21:59:34.099Z,4.10
2022-12-15T22:02:10.775Z,3.85
2022-12-15T22:04:41.829Z,3.87
2022-12-15T22:07:13.676Z,3.13
2022-12-15T22:09:43.254Z,1.98
2022-12-15T22:12:20.149Z,2.91
2022-12-15T22:14:52.457Z,3.32
2022-12-15T22:17:23.625Z,2.99
2022-12-15T22:19:53.258Z,3.22
2022-12-15T22:22:24.724Z,3.48
2022-12-15T22:24:58.167Z,3.83
2022-12-15T22:27:27.925Z,3.86
2022-12-15T22:29:59.561Z,3.98
2022-12-15T22:32:30.632Z,3.43
2022-12-15T22:35:00.366Z,3.21
2022-12-15T22:37:30.065Z,3.56
2022-12-15T22:39:59.696Z,3.16
2022-12-15T22:42:29.567Z,3.58
2022-12-15T22:45:01.175Z,3.61
2022-12-15T22:47:30.876Z,3.61
2022-12-15T22:50:00.634Z,3.88
2022-12-15T22:52:30.261Z,3.55
2022-12-15T22:55:00.412Z,3.97
2022-12-15T22:57:30.788Z,3.88
2022-12-15T23:00:06.051Z,3.42
2022-12-15T23:02:38.254Z,3.98
2022-12-15T23:05:08.736Z,4.12
2022-12-15T23:07:38.425Z,3.98
2022-12-15T23:10:27.725Z,3.84
2022-12-15T23:12:58.465Z,3.50
2022-12-15T23:15:48.099Z,3.39
2022-12-15T23:18:18.072Z,3.80
2022-12-15T23:20:47.770Z,3.79
2022-12-15T23:23:17.425Z,3.79
2022-12-15T23:25:48.270Z,3.82
2022-12-15T23:28:18.365Z,3.38
2022-12-15T23:30:53.667Z,2.47
2022-12-15T23:33:25.335Z,2.53
2022-12-15T23:35:56.335Z,3.41
2022-12-15T23:38:26.976Z,3.02
2022-12-15T23:40:57.699Z,3.08
2022-12-15T23:43:29.763Z,3.65
2022-12-15T23:46:02.377Z,3.69
2022-12-15T23:48:33.071Z,2.14
2022-12-15T23:51:08.396Z,2.81
2022-12-15T23:53:38.739Z,2.77
2022-12-15T23:56:11.617Z,2.51
2022-12-15T23:58:42.372Z,2.93
